Time;durP1;ratioP1;P1;durP2;ratioP2;P2;SDS_P1;SDS_P2;PMS_P1;PMS_P2;Temp;Humidity;BMP_temperature;BMP_pressure;BME280_temperature;BME280_humidity;BME280_pressure;Samples;Min_cycle;Max_cycle;Signal;HPM_P1;HPM_P2
2023/04/12 00:00:12;;;;;;;1.77;0.70;;;6.80;99.90;;;;;;6097939;22;20340;-88
2023/04/12 00:02:40;;;;;;;2.50;0.60;;;6.80;99.90;;;;;;6098630;22;20022;-86
2023/04/12 00:05:08;;;;;;;3.60;0.50;;;6.80;99.90;;;;;;6146248;22;20758;-88
2023/04/12 00:07:34;;;;;;;4.93;0.70;;;6.80;99.90;;;;;;6146449;22;20020;-87
2023/04/12 00:10:00;;;;;;;4.17;1.10;;;6.80;99.90;;;;;;6098258;22;20068;-85
2023/04/12 00:12:26;;;;;;;4.63;0.80;;;6.80;99.90;;;;;;6098370;22;20352;-85
2023/04/12 00:14:51;;;;;;;3.87;0.87;;;6.80;99.90;;;;;;6097817;22;20039;-87
2023/04/12 00:17:18;;;;;;;2.43;0.50;;;6.80;99.90;;;;;;6146591;22;20016;-85
2023/04/12 00:19:43;;;;;;;2.40;0.63;;;6.80;99.90;;;;;;6074532;22;20103;-88
2023/04/12 00:22:10;;;;;;;4.43;0.90;;;6.80;99.90;;;;;;6146495;22;20012;-87
2023/04/12 00:24:39;;;;;;;;;;;6.80;99.90;;;;;;6146339;22;20019;-87
2023/04/12 00:27:05;;;;;;;3.33;1.02;;;6.80;99.90;;;;;;6274595;22;19918;-87
2023/04/12 00:29:32;;;;;;;3.97;0.70;;;6.80;99.90;;;;;;6146290;22;20015;-88
2023/04/12 00:32:00;;;;;;;2.58;0.90;;;6.80;99.90;;;;;;6122758;22;20020;-87
2023/04/12 00:34:27;;;;;;;1.92;0.77;;;6.80;99.90;;;;;;6122846;22;20015;-86
2023/04/12 00:36:52;;;;;;;;;;;6.80;99.90;;;;;;6224828;22;20411;-86
2023/04/12 00:39:18;;;;;;;4.03;0.60;;;6.80;99.90;;;;;;6122234;22;19954;-87
2023/04/12 00:41:44;;;;;;;3.40;1.43;;;6.80;99.90;;;;;;6146667;22;20030;-88
2023/04/12 00:44:10;;;;;;;4.13;0.97;;;6.80;99.90;;;;;;6146239;22;20016;-88
2023/04/12 00:46:36;;;;;;;4.27;0.80;;;6.80;99.90;;;;;;6146132;22;20016;-88
2023/04/12 00:49:02;;;;;;;;;;;6.80;99.90;;;;;;6122646;22;20026;-86
2023/04/12 00:51:32;;;;;;;4.63;1.17;;;6.90;99.90;;;;;;6218101;22;19913;-81
2023/04/12 00:54:00;;;;;;;2.38;0.82;;;6.90;99.90;;;;;;6216544;22;20018;-81
2023/04/12 00:56:27;;;;;;;7.38;1.33;;;6.90;99.90;;;;;;6241665;22;20021;-81
2023/04/12 00:58:54;;;;;;;2.67;0.73;;;6.90;99.90;;;;;;6240950;22;20018;-81
2023/04/12 01:01:20;;;;;;;4.88;0.93;;;6.90;99.90;;;;;;6240979;22;20086;-81
2023/04/12 01:03:47;;;;;;;2.80;0.70;;;7.00;99.90;;;;;;6241633;22;20018;-82
2023/04/12 01:06:28;;;;;;;1.88;0.68;;;7.00;99.90;;;;;;6215940;22;20021;-80
2023/04/12 01:09:12;;;;;;;3.53;1.10;;;7.00;99.90;;;;;;6266267;22;20391;-79
2023/04/12 01:11:48;;;;;;;5.55;0.90;;;7.10;99.90;;;;;;6265844;22;20084;-81
2023/04/12 01:14:36;;;;;;;4.10;0.90;;;7.10;99.90;;;;;;6266593;22;20514;-86
2023/04/12 01:17:06;;;;;;;2.08;0.90;;;7.10;99.90;;;;;;6266161;22;20070;-82
2023/04/12 01:19:34;;;;;;;2.63;1.00;;;7.10;99.90;;;;;;6240936;22;20018;-82
2023/04/12 01:22:31;;;;;;;2.92;0.98;;;7.10;99.90;;;;;;6266034;22;20010;-88
2023/04/12 01:25:22;;;;;;;3.63;1.13;;;7.10;99.90;;;;;;6241770;22;20067;-82
2023/04/12 01:27:53;;;;;;;3.92;1.23;;;7.20;99.90;;;;;;6266818;22;20017;-82
2023/04/12 01:30:19;;;;;;;3.05;0.80;;;7.20;99.90;;;;;;6266577;22;20014;-83
2023/04/12 01:32:50;;;;;;;2.22;0.73;;;7.20;99.90;;;;;;6266630;22;20018;-82
2023/04/12 01:35:26;;;;;;;3.67;0.82;;;7.20;99.90;;;;;;6266122;22;20046;-83
2023/04/12 01:37:53;;;;;;;4.45;0.93;;;7.30;99.90;;;;;;6240354;22;20018;-82
2023/04/12 01:40:19;;;;;;;4.95;0.98;;;7.30;99.90;;;;;;6216694;22;20062;-82
2023/04/12 01:42:44;;;;;;;4.18;1.10;;;7.30;99.90;;;;;;6215462;22;20110;-82
2023/04/12 01:45:10;;;;;;;3.40;1.13;;;7.30;99.90;;;;;;6190211;22;20435;-86
2023/04/12 01:47:37;;;;;;;2.70;0.63;;;7.30;99.90;;;;;;6266206;22;20014;-82
2023/04/12 01:50:26;;;;;;;3.60;1.10;;;7.40;99.90;;;;;;6267085;22;20395;-81
2023/04/12 01:52:59;;;;;;;6.50;1.23;;;7.40;99.90;;;;;;6403849;22;20017;-82
2023/04/12 01:55:29;;;;;;;3.75;1.42;;;7.40;99.90;;;;;;6266347;22;20018;-78
2023/04/12 01:57:56;;;;;;;3.67;1.00;;;7.30;99.90;;;;;;6241260;22;20010;-78
2023/04/12 02:00:22;;;;;;;3.67;0.93;;;7.30;99.90;;;;;;6399254;22;20010;-77
2023/04/12 02:02:48;;;;;;;2.97;1.00;;;7.40;99.90;;;;;;6266718;22;20022;-79
2023/04/12 02:05:14;;;;;;;6.20;1.87;;;7.40;99.90;;;;;;6402798;22;20049;-79
2023/04/12 02:07:41;;;;;;;2.00;0.60;;;7.40;99.90;;;;;;6241406;22;20056;-77
2023/04/12 02:10:07;;;;;;;4.63;1.00;;;7.40;99.90;;;;;;6403070;22;20014;-80
2023/04/12 02:12:32;;;;;;;2.30;1.00;;;7.40;99.90;;;;;;6402999;22;20450;-78
2023/04/12 02:14:59;;;;;;;5.03;1.20;;;7.40;99.90;;;;;;6241455;22;20014;-81
2023/04/12 02:17:24;;;;;;;2.33;0.90;;;7.40;99.90;;;;;;6402382;22;20013;-78
2023/04/12 02:19:50;;;;;;;1.20;0.63;;;7.40;99.90;;;;;;6266853;22;20300;-77
2023/04/12 02:22:16;;;;;;;2.30;0.80;;;7.40;99.90;;;;;;6242012;22;20067;-80
2023/04/12 02:24:41;;;;;;;3.80;1.00;;;7.40;99.90;;;;;;6267090;22;20030;-82
2023/04/12 02:27:07;;;;;;;4.23;1.10;;;7.40;99.90;;;;;;6402962;22;20014;-78
2023/04/12 02:29:33;;;;;;;4.57;1.10;;;7.40;99.90;;;;;;6266401;22;20047;-78
2023/04/12 02:31:58;;;;;;;4.07;1.20;;;7.40;99.90;;;;;;6267062;22;20010;-79
2023/04/12 02:34:24;;;;;;;2.97;1.20;;;7.40;99.90;;;;;;6241860;22;20009;-79
2023/04/12 02:36:50;;;;;;;2.73;0.90;;;7.40;99.90;;;;;;6266428;22;20150;-78
2023/04/12 02:39:20;;;;;;;4.23;1.43;;;7.50;99.90;;;;;;6241239;22;20066;-78
2023/04/12 02:41:46;;;;;;;3.63;1.33;;;7.50;99.90;;;;;;6242356;22;20423;-78
2023/04/12 02:44:12;;;;;;;2.70;0.97;;;7.50;99.90;;;;;;6241648;22;20067;-79
2023/04/12 02:46:38;;;;;;;5.40;1.47;;;7.50;99.90;;;;;;6216157;22;20018;-78
2023/04/12 02:49:03;;;;;;;2.63;0.83;;;7.50;99.90;;;;;;6402644;22;20018;-78
2023/04/12 02:51:30;;;;;;;4.47;1.10;;;7.60;99.90;;;;;;6266496;22;20071;-77
2023/04/12 02:53:56;;;;;;;6.90;1.75;;;7.70;99.90;;;;;;6266785;22;20519;-80
2023/04/12 02:56:23;;;;;;;4.17;0.97;;;7.70;99.90;;;;;;6241316;22;20014;-81
2023/04/12 02:58:49;;;;;;;3.25;0.90;;;7.70;99.90;;;;;;6266217;22;20026;-77
2023/04/12 03:01:15;;;;;;;3.50;1.00;;;7.70;99.90;;;;;;6241075;22;20010;-79
2023/04/12 03:03:41;;;;;;;2.65;1.30;;;7.70;99.90;;;;;;6402466;22;20025;-79
2023/04/12 03:06:08;;;;;;;3.13;0.90;;;7.70;99.90;;;;;;6402699;22;20010;-77
2023/04/12 03:08:34;;;;;;;;;;;7.70;99.90;;;;;;6266818;22;20025;-82
2023/04/12 03:11:00;;;;;;;3.58;1.10;;;7.70;99.90;;;;;;6266197;22;20257;-78
2023/04/12 03:13:26;;;;;;;3.47;0.97;;;7.60;99.90;;;;;;6267068;22;20014;-83
2023/04/12 03:15:58;;;;;;;3.83;1.03;;;7.60;99.90;;;;;;6266323;22;20022;-79
2023/04/12 03:18:24;;;;;;;2.88;0.95;;;7.60;99.90;;;;;;6266069;22;20017;-78
2023/04/12 03:20:51;;;;;;;2.75;0.88;;;7.60;99.90;;;;;;6241283;22;20055;-77
2023/04/12 03:23:18;;;;;;;3.35;0.95;;;7.60;99.90;;;;;;6266725;22;20442;-77
2023/04/12 03:25:43;;;;;;;4.80;0.85;;;7.60;99.90;;;;;;6266189;22;20010;-78
2023/04/12 03:28:09;;;;;;;2.67;0.80;;;7.60;99.90;;;;;;6240951;22;20093;-77
2023/04/12 03:30:35;;;;;;;2.88;0.80;;;7.70;99.90;;;;;;6401979;22;20461;-80
2023/04/12 03:33:01;;;;;;;3.33;0.80;;;7.70;99.90;;;;;;6240939;22;20057;-79
2023/04/12 03:35:26;;;;;;;4.60;1.00;;;7.70;99.90;;;;;;6402121;22;20009;-78
2023/04/12 03:37:52;;;;;;;3.27;0.70;;;7.70;99.90;;;;;;6266467;22;20017;-77
2023/04/12 03:40:18;;;;;;;3.70;1.00;;;7.70;99.90;;;;;;6266564;22;20018;-80
2023/04/12 03:42:43;;;;;;;1.67;0.73;;;7.80;99.90;;;;;;6240712;22;20050;-77
2023/04/12 03:45:09;;;;;;;3.03;0.83;;;7.80;99.90;;;;;;6265956;22;20042;-79
2023/04/12 03:47:35;;;;;;;3.17;0.73;;;7.80;99.90;;;;;;6240912;22;20018;-84
2023/04/12 03:50:06;;;;;;;3.20;0.60;;;7.80;99.90;;;;;;6191818;22;20010;-84
2023/04/12 03:52:32;;;;;;;7.45;0.93;;;7.80;99.90;;;;;;6241580;22;20025;-83
2023/04/12 03:54:58;;;;;;;3.50;0.80;;;7.80;99.90;;;;;;6266234;22;20010;-83
2023/04/12 03:57:24;;;;;;;2.20;0.60;;;7.80;99.90;;;;;;6241648;22;20022;-84
2023/04/12 03:59:50;;;;;;;2.90;0.60;;;7.80;99.90;;;;;;6241332;22;20601;-84
2023/04/12 04:02:16;;;;;;;4.57;0.70;;;7.80;99.90;;;;;;6292648;22;20442;-77
2023/04/12 04:04:42;;;;;;;2.87;0.60;;;7.80;99.90;;;;;;6373421;22;20022;-80
2023/04/12 04:07:10;;;;;;;3.43;1.00;;;7.80;99.90;;;;;;6347163;22;20033;-77
2023/04/12 04:09:35;;;;;;;2.85;0.80;;;7.80;99.90;;;;;;6346725;22;20251;-78
2023/04/12 04:12:01;;;;;;;3.40;0.83;;;7.80;99.90;;;;;;6372779;22;20017;-80
2023/04/12 04:14:27;;;;;;;2.03;0.60;;;7.80;99.90;;;;;;6321062;22;20435;-78
2023/04/12 04:16:54;;;;;;;2.03;0.50;;;7.80;99.90;;;;;;6373290;22;20036;-78
2023/04/12 04:19:20;;;;;;;;;;;7.80;99.90;;;;;;6373689;22;20446;-78
2023/04/12 04:21:46;;;;;;;2.42;0.70;;;7.70;99.90;;;;;;6373372;22;19967;-78
2023/04/12 04:24:13;;;;;;;3.47;1.10;;;7.70;99.90;;;;;;6373093;22;20010;-80
2023/04/12 04:26:38;;;;;;;;;;;7.70;99.90;;;;;;6401559;22;20018;-79
2023/04/12 04:29:04;;;;;;;2.83;0.73;;;7.70;99.90;;;;;;6401485;22;19920;-82
2023/04/12 04:31:35;;;;;;;2.60;0.60;;;7.70;99.90;;;;;;6372657;22;20014;-80
2023/04/12 04:34:05;;;;;;;3.40;0.75;;;7.70;99.90;;;;;;6374244;22;20342;-77
2023/04/12 04:36:36;;;;;;;2.03;0.70;;;7.60;99.90;;;;;;6372890;22;20014;-79
2023/04/12 04:39:03;;;;;;;2.97;0.93;;;7.70;99.90;;;;;;6372772;22;20084;-78
2023/04/12 04:41:33;;;;;;;4.90;0.88;;;7.60;99.90;;;;;;6373037;22;20018;-77
2023/04/12 04:43:59;;;;;;;3.22;0.65;;;7.60;99.90;;;;;;6400987;22;20159;-78
2023/04/12 04:46:29;;;;;;;2.70;0.82;;;7.60;99.90;;;;;;6373019;22;20018;-77
2023/04/12 04:48:55;;;;;;;5.50;1.08;;;7.60;99.90;;;;;;6372683;22;20010;-78
2023/04/12 04:51:21;;;;;;;4.33;1.07;;;7.60;99.90;;;;;;6371900;22;20097;-76
2023/04/12 04:53:46;;;;;;;3.03;0.93;;;7.50;99.90;;;;;;6371605;22;20310;-77
2023/04/12 04:56:12;;;;;;;3.20;0.73;;;7.50;99.90;;;;;;6372157;22;20026;-78
2023/04/12 04:58:38;;;;;;;4.50;1.47;;;7.50;99.90;;;;;;6372661;22;20024;-77
2023/04/12 05:01:04;;;;;;;3.77;1.20;;;7.50;99.90;;;;;;6372619;22;20029;-76
2023/04/12 05:03:32;;;;;;;3.10;1.27;;;7.50;99.90;;;;;;6372682;22;20026;-80
2023/04/12 05:05:59;;;;;;;3.80;1.10;;;7.50;99.90;;;;;;6373726;22;20014;-77
2023/04/12 05:08:25;;;;;;;;;;;7.50;99.90;;;;;;6348246;22;20100;-79
2023/04/12 05:10:51;;;;;;;7.10;1.30;;;7.50;99.90;;;;;;6401904;22;20279;-76
2023/04/12 05:13:18;;;;;;;3.80;1.20;;;7.50;99.90;;;;;;6373851;22;20288;-76
2023/04/12 05:15:47;;;;;;;4.07;1.13;;;7.40;99.90;;;;;;6374390;22;20014;-77
2023/04/12 05:18:13;;;;;;;2.95;1.10;;;7.40;99.90;;;;;;6373546;22;20171;-81
2023/04/12 05:20:39;;;;;;;5.00;1.30;;;7.40;99.90;;;;;;6401690;22;20014;-79
2023/04/12 05:28:16;;;;;;;4.88;1.40;;;7.40;99.90;;;;;;6402720;22;20022;-88
2023/04/12 05:30:43;;;;;;;6.67;1.57;;;7.40;99.90;;;;;;6268026;22;20021;-87
2023/04/12 05:33:09;;;;;;;3.75;1.42;;;7.40;99.90;;;;;;6242658;22;20006;-88
2023/04/12 05:35:35;;;;;;;3.90;1.00;;;7.40;99.90;;;;;;6242348;22;20014;-90
2023/04/12 05:38:01;;;;;;;5.87;1.40;;;7.40;99.90;;;;;;6242834;22;20214;-80
2023/04/12 05:40:26;;;;;;;3.60;1.33;;;7.40;99.90;;;;;;6267611;22;20017;-81
2023/04/12 05:42:53;;;;;;;4.17;1.20;;;7.40;99.90;;;;;;6403713;22;20070;-81
2023/04/12 05:45:18;;;;;;;2.30;0.93;;;7.40;99.90;;;;;;6403581;22;20468;-82
2023/04/12 05:47:44;;;;;;;10.40;2.50;;;7.40;99.90;;;;;;6403781;22;20050;-82
2023/04/12 05:50:10;;;;;;;2.97;1.00;;;7.40;99.90;;;;;;6267318;22;20010;-81
2023/04/12 05:52:36;;;;;;;3.63;1.30;;;7.40;99.90;;;;;;6268040;22;20021;-78
2023/04/12 05:55:02;;;;;;;4.45;1.08;;;7.40;99.90;;;;;;6403575;22;20374;-82
2023/04/12 05:57:28;;;;;;;3.43;1.00;;;7.30;99.90;;;;;;6266861;22;20014;-88
2023/04/12 05:59:53;;;;;;;5.00;1.23;;;7.30;99.90;;;;;;6191507;22;20256;-86
2023/04/12 06:02:19;;;;;;;3.87;1.00;;;7.30;99.90;;;;;;6242227;22;20014;-86
2023/04/12 06:04:45;;;;;;;4.50;1.20;;;7.40;99.90;;;;;;6241495;22;20088;-88
2023/04/12 06:07:11;;;;;;;3.23;1.20;;;7.40;99.90;;;;;;6241302;22;20010;-81
2023/04/12 06:09:37;;;;;;;4.10;1.00;;;7.40;99.90;;;;;;6267322;22;20194;-81
2023/04/12 06:12:06;;;;;;;5.23;1.43;;;7.40;99.90;;;;;;6241966;22;20358;-89
2023/04/12 06:14:32;;;;;;;2.63;0.60;;;7.40;99.90;;;;;;6214797;22;20032;-82
2023/04/12 06:16:57;;;;;;;3.20;0.70;;;7.40;99.90;;;;;;6266987;22;20521;-82
2023/04/12 06:19:23;;;;;;;5.30;1.03;;;7.40;99.90;;;;;;6243004;22;20083;-92
2023/04/12 06:21:50;;;;;;;3.40;0.73;;;7.40;99.90;;;;;;6216848;22;20250;-85
2023/04/12 06:24:16;;;;;;;3.03;0.80;;;7.40;99.90;;;;;;6267888;22;20009;-84
2023/04/12 06:26:45;;;;;;;3.55;0.82;;;7.40;99.90;;;;;;6267318;22;20014;-84
2023/04/12 06:29:11;;;;;;;3.00;0.90;;;7.40;99.90;;;;;;6267659;22;20456;-86
2023/04/12 06:31:37;;;;;;;6.63;1.40;;;7.40;99.90;;;;;;6267960;22;20018;-82
2023/04/12 06:34:02;;;;;;;2.20;0.90;;;7.40;99.90;;;;;;6403572;22;20089;-83
2023/04/12 06:36:28;;;;;;;2.80;1.07;;;7.40;99.90;;;;;;6403412;22;20067;-85
2023/04/12 06:38:54;;;;;;;2.97;0.90;;;7.40;99.90;;;;;;6403377;22;20323;-85
2023/04/12 06:41:20;;;;;;;4.77;1.10;;;7.40;99.90;;;;;;6403284;22;20018;-85
2023/04/12 06:43:46;;;;;;;2.55;0.90;;;7.40;99.90;;;;;;6267176;22;20014;-84
2023/04/12 06:46:14;;;;;;;3.73;1.00;;;7.40;99.90;;;;;;6398843;22;20018;-80
2023/04/12 06:48:40;;;;;;;4.65;1.02;;;7.40;99.90;;;;;;6242608;22;20071;-80
2023/04/12 06:51:06;;;;;;;4.40;1.00;;;7.40;99.90;;;;;;6242103;22;20017;-80
2023/04/12 06:53:33;;;;;;;3.75;1.30;;;7.40;99.90;;;;;;6242172;22;20029;-83
2023/04/12 06:56:03;;;;;;;3.00;0.90;;;7.40;99.90;;;;;;6267054;22;20059;-81
2023/04/12 06:58:30;;;;;;;4.22;1.10;;;7.40;99.90;;;;;;6241905;22;20017;-81
2023/04/12 07:01:07;;;;;;;2.72;0.90;;;7.40;99.90;;;;;;6345799;22;20013;-82
2023/04/12 07:03:33;;;;;;;2.65;1.13;;;7.40;99.90;;;;;;6216101;22;20082;-81
2023/04/12 07:06:01;;;;;;;1.98;0.73;;;7.50;99.90;;;;;;6265404;22;20013;-82
2023/04/12 07:08:34;;;;;;;1.63;0.65;;;7.50;99.90;;;;;;6267149;22;20014;-82
2023/04/12 07:10:59;;;;;;;3.53;1.50;;;7.50;99.90;;;;;;6193383;22;20009;-85
2023/04/12 07:13:25;;;;;;;2.73;1.03;;;7.50;99.90;;;;;;6267162;22;20088;-83
2023/04/12 07:15:52;;;;;;;2.93;1.27;;;7.50;99.90;;;;;;6267055;22;20021;-85
2023/04/12 07:18:18;;;;;;;;;;;7.50;99.90;;;;;;6403039;22;20377;-87
2023/04/12 07:20:46;;;;;;;3.72;1.05;;;7.50;99.90;;;;;;6242226;22;19914;-84
2023/04/12 07:23:12;;;;;;;2.63;0.90;;;7.50;99.90;;;;;;6266827;22;20048;-85
2023/04/12 07:25:38;;;;;;;2.78;1.00;;;7.50;99.90;;;;;;6267115;22;20084;-84
2023/04/12 07:28:05;;;;;;;4.20;1.13;;;7.50;99.90;;;;;;6266906;22;20455;-84
2023/04/12 07:30:30;;;;;;;2.60;1.10;;;7.50;99.90;;;;;;6267105;22;20014;-84
2023/04/12 07:32:56;;;;;;;2.67;1.00;;;7.50;99.90;;;;;;6267772;22;20021;-84
2023/04/12 07:35:22;;;;;;;3.30;1.10;;;7.50;99.90;;;;;;6241603;22;20037;-86
2023/04/12 07:37:47;;;;;;;2.90;1.20;;;7.50;99.90;;;;;;6266977;22;20028;-85
2023/04/12 07:40:13;;;;;;;3.10;1.20;;;7.50;99.90;;;;;;6402893;22;20017;-86
2023/04/12 07:42:39;;;;;;;4.10;1.23;;;7.50;99.90;;;;;;6241831;22;20012;-85
2023/04/12 07:45:05;;;;;;;2.27;1.23;;;7.50;99.90;;;;;;6266459;22;20025;-86
2023/04/12 07:47:31;;;;;;;4.55;1.38;;;7.50;99.90;;;;;;6266544;22;20044;-87
2023/04/12 07:49:57;;;;;;;3.63;1.20;;;7.50;99.90;;;;;;6242148;22;20080;-83
2023/04/12 07:52:23;;;;;;;3.33;1.10;;;7.50;99.90;;;;;;6402539;22;20014;-83
2023/04/12 07:54:49;;;;;;;2.45;0.90;;;7.50;99.90;;;;;;6241584;22;20010;-83
2023/04/12 07:57:15;;;;;;;4.53;1.55;;;7.60;99.90;;;;;;6267041;22;20010;-80
2023/04/12 07:59:41;;;;;;;3.33;1.03;;;7.50;99.90;;;;;;6267313;22;20127;-81
2023/04/12 08:02:07;;;;;;;3.73;1.37;;;7.60;99.90;;;;;;6266968;22;20091;-79
2023/04/12 08:04:32;;;;;;;3.00;1.53;;;7.60;99.90;;;;;;6402494;22;20451;-82
2023/04/12 08:06:58;;;;;;;4.40;1.07;;;7.60;99.90;;;;;;6266680;22;20013;-78
2023/04/12 08:09:24;;;;;;;5.07;1.40;;;7.60;99.90;;;;;;6402576;22;20013;-80
2023/04/12 08:11:50;;;;;;;5.57;1.50;;;7.60;99.90;;;;;;6267256;22;20048;-78
2023/04/12 08:14:15;;;;;;;2.80;1.00;;;7.60;99.90;;;;;;6266495;22;20308;-78
2023/04/12 08:16:41;;;;;;;2.60;0.97;;;7.60;99.90;;;;;;6267377;22;20267;-79
2023/04/12 08:19:07;;;;;;;3.70;0.80;;;7.60;99.90;;;;;;6266703;22;20018;-80
2023/04/12 08:21:33;;;;;;;2.97;1.00;;;7.60;99.90;;;;;;6402140;22;20024;-80
2023/04/12 08:23:59;;;;;;;1.98;0.85;;;7.70;99.90;;;;;;6402335;22;20009;-79
2023/04/12 08:26:28;;;;;;;2.83;1.00;;;7.70;99.90;;;;;;6266656;22;20347;-79
2023/04/12 08:28:56;;;;;;;2.33;1.02;;;7.80;99.90;;;;;;6242366;22;20010;-84
2023/04/12 08:31:22;;;;;;;2.65;1.10;;;7.80;99.90;;;;;;6266375;22;20027;-77
2023/04/12 08:33:48;;;;;;;3.20;1.00;;;7.80;99.90;;;;;;6266827;22;20089;-79
2023/04/12 08:36:14;;;;;;;4.13;1.20;;;7.80;99.90;;;;;;6266380;22;20789;-81
2023/04/12 08:38:39;;;;;;;3.55;1.23;;;7.90;99.90;;;;;;6241744;22;20014;-80
2023/04/12 08:41:05;;;;;;;2.40;0.83;;;7.90;99.90;;;;;;6266436;22;20068;-81
2023/04/12 08:43:33;;;;;;;2.40;1.27;;;7.90;99.90;;;;;;6266633;22;20018;-85
2023/04/12 08:45:59;;;;;;;3.00;1.13;;;8.00;99.90;;;;;;6240892;22;20010;-81
2023/04/12 08:48:26;;;;;;;2.60;1.10;;;8.00;99.90;;;;;;6266590;22;20025;-82
2023/04/12 08:50:53;;;;;;;;;;;8.00;99.90;;;;;;6241617;22;20346;-81
2023/04/12 08:53:19;;;;;;;2.88;1.23;;;8.00;99.90;;;;;;6266738;22;19914;-79
2023/04/12 08:55:45;;;;;;;2.93;0.93;;;8.00;99.90;;;;;;6241089;22;20083;-83
2023/04/12 08:58:13;;;;;;;1.87;0.97;;;8.00;99.90;;;;;;6266287;22;20018;-81
2023/04/12 09:00:43;;;;;;;3.67;1.48;;;8.00;99.90;;;;;;6401389;22;20060;-88
2023/04/12 09:03:11;;;;;;;2.80;1.25;;;8.00;99.90;;;;;;6266539;22;20013;-88
2023/04/12 09:05:37;;;;;;;3.35;1.23;;;8.10;99.90;;;;;;6401771;22;20009;-83
2023/04/12 09:08:04;;;;;;;2.97;1.23;;;8.10;99.90;;;;;;6241127;22;20087;-82
2023/04/12 09:10:35;;;;;;;2.42;1.20;;;8.10;99.90;;;;;;6265674;22;20009;-86
2023/04/12 09:13:05;;;;;;;4.38;1.23;;;8.10;99.90;;;;;;6266238;22;20045;-83
2023/04/12 09:15:33;;;;;;;2.53;1.10;;;8.10;99.90;;;;;;6401892;22;20078;-84
2023/04/12 09:18:10;;;;;;;2.92;1.25;;;8.20;99.90;;;;;;6266285;22;20029;-85
2023/04/12 09:20:37;;;;;;;3.00;1.05;;;8.20;99.90;;;;;;6265989;22;20040;-78
2023/04/12 09:23:18;;;;;;;;;;;8.20;99.90;;;;;;6402377;22;20079;-79
2023/04/12 09:25:46;;;;;;;2.28;1.00;;;8.30;99.90;;;;;;6241204;22;19917;-81
2023/04/12 09:28:29;;;;;;;2.65;1.30;;;8.30;99.90;;;;;;6265878;22;20041;-86
2023/04/12 09:30:57;;;;;;;3.40;1.40;;;8.30;99.90;;;;;;6239854;22;20017;-86
2023/04/12 09:33:37;;;;;;;3.10;1.27;;;8.30;99.90;;;;;;6241371;22;20492;-86
2023/04/12 09:36:04;;;;;;;2.45;1.10;;;8.30;99.90;;;;;;6266376;22;20332;-86
2023/04/12 09:38:31;;;;;;;3.38;1.30;;;8.40;99.90;;;;;;6266283;22;20473;-87
2023/04/12 09:41:13;;;;;;;2.53;1.30;;;8.40;99.90;;;;;;6241898;22;20443;-87
2023/04/12 09:43:39;;;;;;;4.47;1.70;;;8.40;99.90;;;;;;6266671;22;20021;-88
2023/04/12 09:46:11;;;;;;;3.53;1.70;;;8.40;99.90;;;;;;6240589;22;20018;-89
2023/04/12 09:48:40;;;;;;;3.28;1.63;;;8.50;99.90;;;;;;6264496;22;20010;-84
2023/04/12 09:51:07;;;;;;;3.05;1.52;;;8.50;99.90;;;;;;6214234;22;20071;-84
2023/04/12 09:53:40;;;;;;;3.58;1.80;;;8.60;99.90;;;;;;6238446;22;20026;-82
2023/04/12 09:56:08;;;;;;;3.53;1.75;;;8.70;99.90;;;;;;6237022;22;20331;-81
2023/04/12 09:58:36;;;;;;;4.03;1.98;;;8.70;99.90;;;;;;6261681;22;20017;-82
2023/04/12 10:01:02;;;;;;;3.17;1.63;;;8.80;99.90;;;;;;6262177;22;20471;-82
2023/04/12 10:03:28;;;;;;;4.28;2.03;;;9.00;99.90;;;;;;6262726;22;20014;-82
2023/04/12 10:05:55;;;;;;;4.00;1.90;;;9.10;99.90;;;;;;6262791;22;20014;-80
2023/04/12 10:08:24;;;;;;;4.22;2.15;;;9.10;99.90;;;;;;6262852;22;20057;-82
2023/04/12 10:10:52;;;;;;;5.38;1.98;;;9.20;99.90;;;;;;6239611;22;20454;-81
2023/04/12 10:13:19;;;;;;;4.60;2.35;;;9.30;99.90;;;;;;6266849;22;20022;-81
2023/04/12 10:15:48;;;;;;;5.35;2.20;;;9.40;99.90;;;;;;6266010;22;20014;-86
2023/04/12 10:18:17;;;;;;;5.95;2.70;;;9.50;99.90;;;;;;6401702;22;20018;-85
2023/04/12 10:20:44;;;;;;;6.20;2.67;;;9.50;99.90;;;;;;6240695;22;20106;-80
2023/04/12 10:23:11;;;;;;;7.63;2.95;;;9.50;99.90;;;;;;6401394;22;20033;-82
2023/04/12 10:25:41;;;;;;;;;;;9.60;99.90;;;;;;6401879;22;20489;-83
2023/04/12 10:28:20;;;;;;;4.80;2.75;;;9.60;99.90;;;;;;6240307;22;19910;-83
2023/04/12 10:30:48;;;;;;;5.93;2.70;;;9.60;99.90;;;;;;6240774;22;20014;-83
2023/04/12 10:33:15;;;;;;;5.53;2.85;;;9.60;99.90;;;;;;6265700;22;20029;-90
2023/04/12 10:35:55;;;;;;;4.78;2.38;;;9.60;99.90;;;;;;6266483;22;20010;-88
2023/04/12 10:38:26;;;;;;;5.05;2.30;;;9.70;99.90;;;;;;6265556;22;20014;-82
2023/04/12 10:41:12;;;;;;;5.68;2.58;;;9.80;99.90;;;;;;6265219;22;20010;-81
2023/04/12 10:43:39;;;;;;;5.55;2.80;;;9.80;99.90;;;;;;6265815;22;20021;-81
2023/04/12 10:46:05;;;;;;;5.70;2.25;;;9.80;99.90;;;;;;6218376;22;1106585;-82
2023/04/12 10:48:49;;;;;;;;;;;9.90;99.90;;;;;;6403814;22;20022;-81
2023/04/12 10:51:29;;;;;;;5.95;2.53;;;9.90;99.90;;;;;;6266977;22;19918;-82
2023/04/12 10:54:07;;;;;;;6.03;2.28;;;10.00;99.90;;;;;;6267393;22;20024;-82
2023/04/12 10:56:44;;;;;;;4.68;2.22;;;10.10;99.90;;;;;;6267393;22;20157;-80
2023/04/12 10:59:10;;;;;;;5.00;2.55;;;10.20;99.90;;;;;;6242196;22;20024;-80
2023/04/12 11:01:36;;;;;;;4.88;2.08;;;10.30;99.90;;;;;;6267663;22;20014;-80
2023/04/12 11:04:19;;;;;;;5.38;2.00;;;10.30;99.90;;;;;;6267320;22;20018;-80
2023/04/12 11:07:03;;;;;;;7.25;2.13;;;10.40;99.90;;;;;;6267164;22;20010;-81
2023/04/12 11:09:32;;;;;;;3.30;1.50;;;10.40;99.90;;;;;;6242884;22;20021;-80
2023/04/12 11:12:03;;;;;;;4.38;2.10;;;10.30;99.90;;;;;;6267793;22;20071;-80
2023/04/12 11:14:48;;;;;;;4.10;1.63;;;10.30;99.90;;;;;;6267784;22;20455;-86
2023/04/12 11:17:14;;;;;;;5.80;2.00;;;10.30;99.90;;;;;;6267595;22;20021;-87
2023/04/12 11:19:45;;;;;;;5.80;2.03;;;10.40;99.90;;;;;;6268080;22;20018;-85
2023/04/12 11:22:13;;;;;;;4.38;1.90;;;10.40;99.90;;;;;;6267292;22;20112;-87
2023/04/12 11:24:42;;;;;;;6.57;1.70;;;10.50;99.90;;;;;;6242780;22;20049;-88
2023/04/12 11:27:08;;;;;;;3.80;1.65;;;10.70;99.90;;;;;;6242348;22;20021;-88
2023/04/12 11:29:34;;;;;;;5.03;1.70;;;10.80;99.90;;;;;;6267603;22;20020;-87
2023/04/12 11:32:04;;;;;;;3.65;1.58;;;10.80;99.90;;;;;;6267926;22;20010;-88
2023/04/12 11:34:35;;;;;;;3.63;1.60;;;10.80;99.90;;;;;;6242718;22;20037;-88
2023/04/12 11:37:06;;;;;;;3.40;1.25;;;10.80;99.90;;;;;;6242176;22;20009;-87
2023/04/12 11:39:33;;;;;;;5.05;1.60;;;10.80;99.90;;;;;;6403136;22;20028;-89
2023/04/12 11:42:00;;;;;;;2.55;1.10;;;10.80;99.90;;;;;;6267901;22;20014;-88
2023/04/12 11:44:26;;;;;;;4.00;1.00;;;10.80;99.90;;;;;;6267723;22;20385;-88
2023/04/12 11:46:54;;;;;;;3.37;0.90;;;10.80;99.90;;;;;;6242439;22;20025;-86
2023/04/12 11:49:21;;;;;;;5.78;1.55;;;10.80;99.90;;;;;;6242312;22;20006;-88
2023/04/12 11:51:47;;;;;;;2.70;0.82;;;10.80;99.90;;;;;;6242741;22;20021;-90
2023/04/12 11:54:13;;;;;;;3.30;0.88;;;10.80;99.90;;;;;;6217694;22;20017;-84
2023/04/12 11:56:40;;;;;;;3.63;1.10;;;10.80;99.90;;;;;;6267778;22;20013;-87
2023/04/12 11:59:06;;;;;;;;;;;10.70;99.90;;;;;;6243049;22;20040;-88
2023/04/12 12:01:36;;;;;;;3.58;0.98;;;10.70;99.90;;;;;;6268115;22;19967;-84
2023/04/12 12:04:03;;;;;;;3.40;1.02;;;10.70;99.90;;;;;;6241323;22;20479;-79
2023/04/12 12:06:30;;;;;;;2.85;0.90;;;10.70;99.90;;;;;;6267615;22;20500;-82
2023/04/12 12:08:56;;;;;;;2.33;0.77;;;10.60;99.90;;;;;;6266741;22;20089;-80
2023/04/12 12:11:23;;;;;;;5.90;1.20;;;10.60;99.90;;;;;;6402349;22;20022;-79
2023/04/12 12:13:49;;;;;;;;;;;10.60;99.90;;;;;;6267283;22;20013;-81
2023/04/12 12:16:16;;;;;;;4.70;1.33;;;10.70;99.90;;;;;;6267361;22;19914;-81
2023/04/12 12:18:47;;;;;;;4.50;1.02;;;10.70;99.90;;;;;;6241280;22;20018;-80
2023/04/12 12:21:14;;;;;;;4.32;0.90;;;10.70;99.90;;;;;;6266218;22;21543;-78
2023/04/12 12:23:42;;;;;;;6.05;1.35;;;10.80;99.90;;;;;;6241353;22;20020;-78
2023/04/12 12:26:08;;;;;;;4.70;0.93;;;10.90;99.90;;;;;;6265337;22;20063;-78
2023/04/12 12:28:38;;;;;;;5.15;1.13;;;10.90;99.90;;;;;;6264694;22;20010;-79
2023/04/12 12:31:09;;;;;;;5.13;1.23;;;11.00;99.90;;;;;;6265453;22;20021;-79
2023/04/12 12:33:41;;;;;;;3.42;0.70;;;11.00;99.90;;;;;;6265281;22;20328;-78
2023/04/12 12:36:07;;;;;;;3.40;0.70;;;11.00;99.90;;;;;;6266209;22;20316;-84
2023/04/12 12:38:37;;;;;;;1.67;0.55;;;11.00;99.90;;;;;;6265847;22;20304;-79
2023/04/12 12:41:17;;;;;;;3.60;0.80;;;11.00;99.90;;;;;;6265673;22;20018;-79
2023/04/12 12:43:47;;;;;;;3.90;0.93;;;11.00;99.90;;;;;;6241120;22;20014;-78
2023/04/12 12:46:13;;;;;;;3.60;0.73;;;11.00;99.90;;;;;;6263693;22;20096;-77
2023/04/12 12:48:40;;;;;;;2.78;0.93;;;11.00;99.90;;;;;;6264011;22;20018;-82
2023/04/12 12:51:07;;;;;;;3.20;0.70;;;11.00;99.90;;;;;;6398267;22;20009;-80
2023/04/12 12:53:34;;;;;;;6.25;0.65;;;11.00;99.90;;;;;;6399831;22;20010;-81
2023/04/12 12:56:00;;;;;;;4.05;0.73;;;11.10;99.90;;;;;;6264274;22;20013;-80
2023/04/12 12:58:29;;;;;;;2.83;0.50;;;11.20;99.90;;;;;;6398003;22;20320;-82
2023/04/12 13:00:56;;;;;;;2.75;0.65;;;11.20;99.90;;;;;;6263484;22;20339;-82
2023/04/12 13:03:22;;;;;;;4.47;0.57;;;11.30;99.90;;;;;;6263606;22;20450;-82
2023/04/12 13:05:48;;;;;;;4.93;0.80;;;11.30;99.90;;;;;;6238896;22;20097;-82